sensor_id;sensor_type;location;lat;lon;timestamp;pressure;altitude;pressure_sealevel;temperature;humidity
30967;BME280;17649;51.836;8.330;2023-05-18T00:00:01;102206.34;;;7.36;100.00
30967;BME280;17649;51.836;8.330;2023-05-18T00:03:02;102203.06;;;7.29;100.00
30967;BME280;17649;51.836;8.330;2023-05-18T00:06:03;102203.06;;;7.26;100.00
30967;BME280;17649;51.836;8.330;2023-05-18T00:09:06;102209.03;;;7.30;100.00
30967;BME280;17649;51.836;8.330;2023-05-18T00:12:06;102211.56;;;7.33;100.00
30967;BME280;17649;51.836;8.330;2023-05-18T00:15:08;102203.91;;;7.27;100.00
30967;BME280;17649;51.836;8.330;2023-05-18T00:18:09;102202.28;;;7.23;100.00
30967;BME280;17649;51.836;8.330;2023-05-18T00:21:09;102208.38;;;7.17;100.00
30967;BME280;17649;51.836;8.330;2023-05-18T00:24:09;102206.75;;;7.11;100.00
30967;BME280;17649;51.836;8.330;2023-05-18T00:27:10;102205.16;;;7.04;100.00
30967;BME280;17649;51.836;8.330;2023-05-18T00:30:10;102208.91;;;6.80;100.00
30967;BME280;17649;51.836;8.330;2023-05-18T00:33:11;102209.69;;;6.88;100.00
30967;BME280;17649;51.836;8.330;2023-05-18T00:36:11;102209.78;;;6.79;100.00
30967;BME280;17649;51.836;8.330;2023-05-18T00:39:11;102206.44;;;6.74;100.00
30967;BME280;17649;51.836;8.330;2023-05-18T00:42:11;102210.59;;;6.84;100.00
30967;BME280;17649;51.836;8.330;2023-05-18T00:45:11;102210.59;;;6.84;100.00
30967;BME280;17649;51.836;8.330;2023-05-18T00:48:12;102206.59;;;6.64;100.00
30967;BME280;17649;51.836;8.330;2023-05-18T00:51:12;102204.91;;;6.61;100.00
30967;BME280;17649;51.836;8.330;2023-05-18T00:54:12;102201.44;;;6.64;100.00
30967;BME280;17649;51.836;8.330;2023-05-18T00:57:13;102208.34;;;6.60;100.00
30967;BME280;17649;51.836;8.330;2023-05-18T01:00:13;102208.22;;;6.68;100.00
30967;BME280;17649;51.836;8.330;2023-05-18T01:03:14;102204.81;;;6.67;100.00
30967;BME280;17649;51.836;8.330;2023-05-18T01:06:14;102205.63;;;6.72;100.00
30967;BME280;17649;51.836;8.330;2023-05-18T01:09:14;102200.47;;;6.72;100.00
30967;BME280;17649;51.836;8.330;2023-05-18T01:12:20;102206.59;;;6.64;100.00
30967;BME280;17649;51.836;8.330;2023-05-18T01:18:32;102209.38;;;6.47;100.00
30967;BME280;17649;51.836;8.330;2023-05-18T01:24:43;102208.59;;;6.42;100.00
30967;BME280;17649;51.836;8.330;2023-05-18T01:27:44;102221.56;;;6.31;100.00
30967;BME280;17649;51.836;8.330;2023-05-18T01:30:45;102217.31;;;6.30;100.00
30967;BME280;17649;51.836;8.330;2023-05-18T01:33:46;102213.09;;;6.21;100.00
30967;BME280;17649;51.836;8.330;2023-05-18T01:36:46;102210.63;;;6.15;100.00
30967;BME280;17649;51.836;8.330;2023-05-18T01:39:46;102221.72;;;6.17;100.00
30967;BME280;17649;51.836;8.330;2023-05-18T01:42:48;102216.63;;;6.14;100.00
30967;BME280;17649;51.836;8.330;2023-05-18T01:45:50;102216.69;;;6.11;100.00
30967;BME280;17649;51.836;8.330;2023-05-18T01:49:50;102215.88;;;6.05;100.00
30967;BME280;17649;51.836;8.330;2023-05-18T01:55:28;102222.09;;;5.78;100.00
30967;BME280;17649;51.836;8.330;2023-05-18T01:58:29;102225.50;;;5.80;100.00
30967;BME280;17649;51.836;8.330;2023-05-18T02:01:30;102222.09;;;5.78;100.00
30967;BME280;17649;51.836;8.330;2023-05-18T02:04:30;102224.69;;;5.78;100.00
30967;BME280;17649;51.836;8.330;2023-05-18T02:07:31;102235.00;;;5.73;100.00
30967;BME280;17649;51.836;8.330;2023-05-18T02:10:31;102225.63;;;5.69;100.00
30967;BME280;17649;51.836;8.330;2023-05-18T02:13:31;102223.13;;;5.60;100.00
30967;BME280;17649;51.836;8.330;2023-05-18T02:16:31;102226.53;;;5.62;100.00
30967;BME280;17649;51.836;8.330;2023-05-18T02:19:32;102231.75;;;5.56;100.00
30967;BME280;17649;51.836;8.330;2023-05-18T02:22:32;102225.75;;;5.55;100.00
30967;BME280;17649;51.836;8.330;2023-05-18T02:25:33;102225.72;;;5.58;100.00
30967;BME280;17649;51.836;8.330;2023-05-18T02:28:33;102222.41;;;5.44;100.00
30967;BME280;17649;51.836;8.330;2023-05-18T02:31:33;102224.22;;;5.33;100.00
30967;BME280;17649;51.836;8.330;2023-05-18T02:34:34;102228.38;;;5.46;100.00
30967;BME280;17649;51.836;8.330;2023-05-18T02:37:38;102226.66;;;5.47;100.00
30967;BME280;17649;51.836;8.330;2023-05-18T02:40:38;102223.34;;;5.38;100.00
30967;BME280;17649;51.836;8.330;2023-05-18T02:43:39;102224.19;;;5.37;100.00
30967;BME280;17649;51.836;8.330;2023-05-18T02:46:39;102228.59;;;5.20;100.00
30967;BME280;17649;51.836;8.330;2023-05-18T02:49:39;102230.31;;;5.23;100.00
30967;BME280;17649;51.836;8.330;2023-05-18T02:52:40;102241.41;;;5.20;100.00
30967;BME280;17649;51.836;8.330;2023-05-18T02:55:40;102244.94;;;5.05;100.00
30967;BME280;17649;51.836;8.330;2023-05-18T02:58:42;102239.81;;;5.08;100.00
30967;BME280;17649;51.836;8.330;2023-05-18T03:01:43;102244.91;;;5.12;100.00
30967;BME280;17649;51.836;8.330;2023-05-18T03:04:43;102242.38;;;5.04;100.00
30967;BME280;17649;51.836;8.330;2023-05-18T03:07:43;102242.38;;;5.05;100.00
30967;BME280;17649;51.836;8.330;2023-05-18T03:10:49;102243.22;;;5.04;100.00
30967;BME280;17649;51.836;8.330;2023-05-18T03:13:49;102244.97;;;4.99;100.00
30967;BME280;17649;51.836;8.330;2023-05-18T03:16:50;102244.09;;;5.02;100.00
30967;BME280;17649;51.836;8.330;2023-05-18T03:19:56;102239.81;;;5.02;100.00
30967;BME280;17649;51.836;8.330;2023-05-18T03:22:56;102250.16;;;4.89;100.00
30967;BME280;17649;51.836;8.330;2023-05-18T03:25:57;102252.72;;;4.93;100.00
30967;BME280;17649;51.836;8.330;2023-05-18T03:28:57;102251.03;;;4.89;100.00
30967;BME280;17649;51.836;8.330;2023-05-18T03:31:58;102255.34;;;4.84;100.00
30967;BME280;17649;51.836;8.330;2023-05-18T03:34:58;102251.06;;;4.85;100.00
30967;BME280;17649;51.836;8.330;2023-05-18T03:38:00;102263.94;;;4.78;100.00
30967;BME280;17649;51.836;8.330;2023-05-18T03:41:00;102254.50;;;4.76;100.00
30967;BME280;17649;51.836;8.330;2023-05-18T03:44:00;102259.66;;;4.71;100.00
30967;BME280;17649;51.836;8.330;2023-05-18T03:47:01;102262.19;;;4.76;100.00
30967;BME280;17649;51.836;8.330;2023-05-18T03:50:02;102255.34;;;4.81;100.00
30967;BME280;17649;51.836;8.330;2023-05-18T03:53:02;102259.66;;;4.73;100.00
30967;BME280;17649;51.836;8.330;2023-05-18T03:56:03;102263.84;;;4.88;100.00
30967;BME280;17649;51.836;8.330;2023-05-18T03:59:03;102270.69;;;4.90;100.00
30967;BME280;17649;51.836;8.330;2023-05-18T04:02:04;102267.22;;;5.00;100.00
30967;BME280;17649;51.836;8.330;2023-05-18T04:05:04;102268.91;;;5.07;100.00
30967;BME280;17649;51.836;8.330;2023-05-18T04:08:05;102267.19;;;5.03;100.00
30967;BME280;17649;51.836;8.330;2023-05-18T04:11:07;102271.44;;;5.09;100.00
30967;BME280;17649;51.836;8.330;2023-05-18T04:14:10;102278.28;;;5.12;100.00
30967;BME280;17649;51.836;8.330;2023-05-18T04:17:10;102273.16;;;5.08;100.00
30967;BME280;17649;51.836;8.330;2023-05-18T04:20:11;102273.09;;;5.22;100.00
30967;BME280;17649;51.836;8.330;2023-05-18T04:23:13;102275.59;;;5.27;100.00
30967;BME280;17649;51.836;8.330;2023-05-18T04:26:13;102275.59;;;5.27;100.00
30967;BME280;17649;51.836;8.330;2023-05-18T04:29:19;102279.06;;;5.23;100.00
30967;BME280;17649;51.836;8.330;2023-05-18T04:32:20;102276.38;;;5.35;100.00
30967;BME280;17649;51.836;8.330;2023-05-18T04:35:20;102273.78;;;5.41;100.00
30967;BME280;17649;51.836;8.330;2023-05-18T04:38:20;102276.34;;;5.44;100.00
30967;BME280;17649;51.836;8.330;2023-05-18T04:41:24;102279.69;;;5.55;100.00
30967;BME280;17649;51.836;8.330;2023-05-18T04:44:25;102279.59;;;5.67;100.00
30967;BME280;17649;51.836;8.330;2023-05-18T04:47:26;102278.63;;;5.78;100.00
30967;BME280;17649;51.836;8.330;2023-05-18T04:50:29;102284.56;;;5.84;100.00
30967;BME280;17649;51.836;8.330;2023-05-18T04:53:29;102276.78;;;5.95;100.00
30967;BME280;17649;51.836;8.330;2023-05-18T04:56:32;102272.34;;;6.09;100.00
30967;BME280;17649;51.836;8.330;2023-05-18T04:59:32;102267.97;;;6.20;100.00
30967;BME280;17649;51.836;8.330;2023-05-18T05:02:35;102270.34;;;6.36;100.00
30967;BME280;17649;51.836;8.330;2023-05-18T05:05:36;102273.78;;;6.36;100.00
30967;BME280;17649;51.836;8.330;2023-05-18T05:08:36;102272.81;;;6.46;100.00
30967;BME280;17649;51.836;8.330;2023-05-18T05:11:36;102265.66;;;6.71;100.00
30967;BME280;17649;51.836;8.330;2023-05-18T05:14:37;102271.47;;;6.87;100.00
30967;BME280;17649;51.836;8.330;2023-05-18T05:17:37;102273.78;;;7.04;100.00
30967;BME280;17649;51.836;8.330;2023-05-18T05:20:37;102272.75;;;7.14;100.00
30967;BME280;17649;51.836;8.330;2023-05-18T05:23:37;102269.13;;;7.30;100.00
30967;BME280;17649;51.836;8.330;2023-05-18T05:26:38;102268.00;;;7.46;100.00
30967;BME280;17649;51.836;8.330;2023-05-18T05:29:38;102265.19;;;7.62;100.00
30967;BME280;17649;51.836;8.330;2023-05-18T05:32:38;102262.53;;;7.65;100.00
30967;BME280;17649;51.836;8.330;2023-05-18T05:35:38;102268.38;;;7.76;100.00
30967;BME280;17649;51.836;8.330;2023-05-18T05:38:38;102267.38;;;7.83;100.00
30967;BME280;17649;51.836;8.330;2023-05-18T05:41:39;102271.16;;;8.12;100.00
30967;BME280;17649;51.836;8.330;2023-05-18T05:44:39;102278.47;;;8.36;100.00
30967;BME280;17649;51.836;8.330;2023-05-18T05:47:40;102273.00;;;8.51;100.00
30967;BME280;17649;51.836;8.330;2023-05-18T05:50:40;102272.75;;;8.62;100.00
30967;BME280;17649;51.836;8.330;2023-05-18T05:53:40;102272.34;;;8.83;100.00
30967;BME280;17649;51.836;8.330;2023-05-18T05:56:42;102273.00;;;8.93;100.00
30967;BME280;17649;51.836;8.330;2023-05-18T05:59:42;102265.97;;;8.98;100.00
30967;BME280;17649;51.836;8.330;2023-05-18T06:02:43;102271.75;;;9.09;100.00
30967;BME280;17649;51.836;8.330;2023-05-18T06:05:43;102265.44;;;9.22;100.00
30967;BME280;17649;51.836;8.330;2023-05-18T06:08:43;102265.94;;;9.37;100.00
30967;BME280;17649;51.836;8.330;2023-05-18T06:11:44;102273.56;;;9.43;100.00
30967;BME280;17649;51.836;8.330;2023-05-18T06:14:45;102270.69;;;9.55;100.00
30967;BME280;17649;51.836;8.330;2023-05-18T06:17:45;102269.59;;;9.64;100.00
30967;BME280;17649;51.836;8.330;2023-05-18T06:20:46;102278.84;;;9.72;100.00
30967;BME280;17649;51.836;8.330;2023-05-18T06:23:47;102279.50;;;9.80;100.00
30967;BME280;17649;51.836;8.330;2023-05-18T06:26:48;102282.66;;;9.92;100.00
30967;BME280;17649;51.836;8.330;2023-05-18T06:29:54;102282.16;;;10.10;100.00
30967;BME280;17649;51.836;8.330;2023-05-18T06:32:54;102277.59;;;10.21;100.00
30967;BME280;17649;51.836;8.330;2023-05-18T06:35:55;102277.88;;;10.09;100.00
30967;BME280;17649;51.836;8.330;2023-05-18T06:38:56;102280.75;;;10.32;100.00
30967;BME280;17649;51.836;8.330;2023-05-18T06:41:56;102279.75;;;10.36;100.00
30967;BME280;17649;51.836;8.330;2023-05-18T06:44:56;102282.09;;;10.45;100.00
30967;BME280;17649;51.836;8.330;2023-05-18T06:47:57;102280.22;;;10.51;100.00
30967;BME280;17649;51.836;8.330;2023-05-18T06:50:57;102290.84;;;10.71;100.00
30967;BME280;17649;51.836;8.330;2023-05-18T06:53:58;102282.22;;;10.70;100.00
30967;BME280;17649;51.836;8.330;2023-05-18T06:56:58;102286.44;;;10.74;100.00
30967;BME280;17649;51.836;8.330;2023-05-18T06:59:58;102294.38;;;10.98;100.00
30967;BME280;17649;51.836;8.330;2023-05-18T07:02:58;102286.44;;;11.04;100.00
30967;BME280;17649;51.836;8.330;2023-05-18T07:06:01;102278.59;;;11.05;100.00
30967;BME280;17649;51.836;8.330;2023-05-18T07:09:03;102295.31;;;11.23;100.00
30967;BME280;17649;51.836;8.330;2023-05-18T07:12:04;102282.47;;;11.20;100.00
30967;BME280;17649;51.836;8.330;2023-05-18T07:15:05;102287.59;;;11.22;100.00
30967;BME280;17649;51.836;8.330;2023-05-18T07:18:05;102284.84;;;11.26;100.00
30967;BME280;17649;51.836;8.330;2023-05-18T07:21:05;102281.75;;;11.42;100.00
30967;BME280;17649;51.836;8.330;2023-05-18T07:24:06;102281.66;;;11.45;100.00
30967;BME280;17649;51.836;8.330;2023-05-18T07:27:06;102278.94;;;11.49;100.00
30967;BME280;17649;51.836;8.330;2023-05-18T07:30:06;102286.06;;;11.16;100.00
30967;BME280;17649;51.836;8.330;2023-05-18T07:33:07;102275.75;;;11.41;100.00
30967;BME280;17649;51.836;8.330;2023-05-18T07:36:07;102282.06;;;11.59;100.00
30967;BME280;17649;51.836;8.330;2023-05-18T07:39:08;102271.13;;;11.51;100.00
30967;BME280;17649;51.836;8.330;2023-05-18T07:42:16;102278.16;;;11.72;100.00
30967;BME280;17649;51.836;8.330;2023-05-18T07:45:16;102277.31;;;11.72;100.00
30967;BME280;17649;51.836;8.330;2023-05-18T07:48:16;102275.19;;;11.58;100.00
30967;BME280;17649;51.836;8.330;2023-05-18T07:51:17;102278.16;;;11.72;100.00
30967;BME280;17649;51.836;8.330;2023-05-18T07:54:17;102267.75;;;11.74;100.00
30967;BME280;17649;51.836;8.330;2023-05-18T07:57:18;102271.81;;;11.82;100.00
30967;BME280;17649;51.836;8.330;2023-05-18T08:00:18;102281.78;;;11.94;100.00
30967;BME280;17649;51.836;8.330;2023-05-18T08:03:19;102268.28;;;12.10;100.00
30967;BME280;17649;51.836;8.330;2023-05-18T08:06:20;102275.50;;;12.25;100.00
30967;BME280;17649;51.836;8.330;2023-05-18T08:09:21;102271.84;;;12.31;100.00
30967;BME280;17649;51.836;8.330;2023-05-18T08:12:22;102271.50;;;12.40;100.00
30967;BME280;17649;51.836;8.330;2023-05-18T08:15:22;102272.06;;;12.48;100.00
30967;BME280;17649;51.836;8.330;2023-05-18T08:18:22;102270.59;;;12.64;100.00
30967;BME280;17649;51.836;8.330;2023-05-18T08:21:22;102263.38;;;12.72;100.00
30967;BME280;17649;51.836;8.330;2023-05-18T08:24:23;102258.75;;;12.57;100.00
30967;BME280;17649;51.836;8.330;2023-05-18T08:27:23;102259.25;;;12.67;100.00
30967;BME280;17649;51.836;8.330;2023-05-18T08:30:23;102258.91;;;12.76;100.00
30967;BME280;17649;51.836;8.330;2023-05-18T08:33:24;102256.94;;;12.82;100.00
30967;BME280;17649;51.836;8.330;2023-05-18T08:36:24;102246.94;;;12.72;100.00
30967;BME280;17649;51.836;8.330;2023-05-18T08:39:25;102246.91;;;12.95;100.00
30967;BME280;17649;51.836;8.330;2023-05-18T08:42:33;102239.00;;;12.98;100.00
30967;BME280;17649;51.836;8.330;2023-05-18T08:45:47;102243.19;;;12.79;100.00
30967;BME280;17649;51.836;8.330;2023-05-18T08:48:48;102247.44;;;13.03;100.00
30967;BME280;17649;51.836;8.330;2023-05-18T08:51:54;102240.13;;;12.91;100.00
30967;BME280;17649;51.836;8.330;2023-05-18T08:54:55;102245.38;;;12.90;100.00
30967;BME280;17649;51.836;8.330;2023-05-18T08:57:56;102242.31;;;13.02;100.00
30967;BME280;17649;51.836;8.330;2023-05-18T09:00:58;102245.31;;;13.13;100.00
30967;BME280;17649;51.836;8.330;2023-05-18T09:03:59;102247.09;;;13.34;100.00
30967;BME280;17649;51.836;8.330;2023-05-18T09:07:00;102232.31;;;12.91;100.00
30967;BME280;17649;51.836;8.330;2023-05-18T09:10:02;102236.44;;;13.40;100.00
30967;BME280;17649;51.836;8.330;2023-05-18T09:13:02;102227.97;;;13.13;100.00
30967;BME280;17649;51.836;8.330;2023-05-18T09:16:04;102230.34;;;13.41;100.00
30967;BME280;17649;51.836;8.330;2023-05-18T09:19:06;102216.16;;;13.49;100.00
30967;BME280;17649;51.836;8.330;2023-05-18T09:22:07;102223.66;;;13.56;100.00
30967;BME280;17649;51.836;8.330;2023-05-18T09:25:08;102219.81;;;13.85;100.00
30967;BME280;17649;51.836;8.330;2023-05-18T09:28:08;102217.25;;;13.63;100.00
30967;BME280;17649;51.836;8.330;2023-05-18T09:31:09;102213.03;;;13.40;100.00
30967;BME280;17649;51.836;8.330;2023-05-18T09:34:11;102217.78;;;13.71;100.00
30967;BME280;17649;51.836;8.330;2023-05-18T09:37:14;102213.41;;;13.92;100.00
30967;BME280;17649;51.836;8.330;2023-05-18T09:40:15;102203.34;;;13.85;100.00
30967;BME280;17649;51.836;8.330;2023-05-18T09:43:16;102204.47;;;13.98;100.00
30967;BME280;17649;51.836;8.330;2023-05-18T09:46:17;102207.63;;;13.65;100.00
30967;BME280;17649;51.836;8.330;2023-05-18T09:49:20;102200.00;;;14.01;100.00
30967;BME280;17649;51.836;8.330;2023-05-18T09:52:20;102211.56;;;14.15;100.00
30967;BME280;17649;51.836;8.330;2023-05-18T09:55:20;102205.91;;;14.44;100.00
30967;BME280;17649;51.836;8.330;2023-05-18T09:58:21;102212.56;;;14.31;100.00
30967;BME280;17649;51.836;8.330;2023-05-18T10:01:21;102210.03;;;14.29;100.00
30967;BME280;17649;51.836;8.330;2023-05-18T10:04:22;102205.03;;;14.63;100.00
30967;BME280;17649;51.836;8.330;2023-05-18T10:07:22;102206.84;;;14.79;100.00
30967;BME280;17649;51.836;8.330;2023-05-18T10:10:24;102203.09;;;14.85;100.00
30967;BME280;17649;51.836;8.330;2023-05-18T10:13:25;102202.84;;;15.08;100.00
30967;BME280;17649;51.836;8.330;2023-05-18T10:16:26;102190.81;;;15.06;100.00
30967;BME280;17649;51.836;8.330;2023-05-18T10:19:26;102193.84;;;14.97;100.00
30967;BME280;17649;51.836;8.330;2023-05-18T10:22:27;102187.78;;;14.96;100.00
30967;BME280;17649;51.836;8.330;2023-05-18T10:25:27;102193.75;;;15.34;100.00
30967;BME280;17649;51.836;8.330;2023-05-18T10:28:40;102187.72;;;15.32;100.00
30967;BME280;17649;51.836;8.330;2023-05-18T10:31:41;102179.59;;;15.56;100.00
30967;BME280;17649;51.836;8.330;2023-05-18T10:34:42;102182.16;;;14.86;100.00
30967;BME280;17649;51.836;8.330;2023-05-18T10:37:44;102178.84;;;15.19;100.00
30967;BME280;17649;51.836;8.330;2023-05-18T10:40:48;102174.59;;;15.86;100.00
30967;BME280;17649;51.836;8.330;2023-05-18T10:43:49;102176.59;;;16.45;100.00
30967;BME280;17649;51.836;8.330;2023-05-18T10:46:51;102173.03;;;16.62;100.00
30967;BME280;17649;51.836;8.330;2023-05-18T10:49:52;102171.72;;;17.16;98.24
30967;BME280;17649;51.836;8.330;2023-05-18T10:52:52;102172.53;;;17.61;89.96
30967;BME280;17649;51.836;8.330;2023-05-18T10:55:53;102175.00;;;17.93;93.81
30967;BME280;17649;51.836;8.330;2023-05-18T10:58:54;102159.06;;;18.24;88.09
30967;BME280;17649;51.836;8.330;2023-05-18T11:01:55;102155.34;;;18.82;100.00
30967;BME280;17649;51.836;8.330;2023-05-18T11:04:56;102153.03;;;18.77;95.05
30967;BME280;17649;51.836;8.330;2023-05-18T11:08:00;102160.53;;;18.28;100.00
30967;BME280;17649;51.836;8.330;2023-05-18T11:11:02;102151.16;;;18.80;85.83
30967;BME280;17649;51.836;8.330;2023-05-18T11:14:03;102154.34;;;18.29;81.07
30967;BME280;17649;51.836;8.330;2023-05-18T11:17:23;102156.97;;;18.29;90.82
30967;BME280;17649;51.836;8.330;2023-05-18T11:20:24;102144.00;;;19.21;91.43
30967;BME280;17649;51.836;8.330;2023-05-18T11:23:24;102144.66;;;19.38;64.41
30967;BME280;17649;51.836;8.330;2023-05-18T11:26:27;102147.94;;;20.52;64.23
30967;BME280;17649;51.836;8.330;2023-05-18T11:29:35;102142.34;;;19.58;61.60
30967;BME280;17649;51.836;8.330;2023-05-18T11:32:36;102140.72;;;21.82;55.42
30967;BME280;17649;51.836;8.330;2023-05-18T11:39:02;102128.81;;;23.17;45.41
30967;BME280;17649;51.836;8.330;2023-05-18T11:42:10;102129.09;;;25.69;50.74
30967;BME280;17649;51.836;8.330;2023-05-18T11:45:11;102129.44;;;25.83;39.39
30967;BME280;17649;51.836;8.330;2023-05-18T11:48:12;102130.66;;;24.95;38.29
30967;BME280;17649;51.836;8.330;2023-05-18T11:51:14;102111.75;;;26.65;37.32
30967;BME280;17649;51.836;8.330;2023-05-18T11:54:14;102110.69;;;26.40;39.89
30967;BME280;17649;51.836;8.330;2023-05-18T11:57:16;102110.25;;;26.17;36.31
30967;BME280;17649;51.836;8.330;2023-05-18T12:00:18;102101.38;;;25.91;38.29
30967;BME280;17649;51.836;8.330;2023-05-18T12:03:22;102109.97;;;23.53;38.46
30967;BME280;17649;51.836;8.330;2023-05-18T12:06:22;102103.69;;;23.94;42.94
30967;BME280;17649;51.836;8.330;2023-05-18T12:09:23;102101.19;;;24.42;43.51
30967;BME280;17649;51.836;8.330;2023-05-18T12:12:27;102088.34;;;23.07;40.61
30967;BME280;17649;51.836;8.330;2023-05-18T12:15:27;102095.13;;;22.68;46.71
30967;BME280;17649;51.836;8.330;2023-05-18T12:18:27;102087.88;;;24.03;42.73
30967;BME280;17649;51.836;8.330;2023-05-18T12:21:28;102092.09;;;26.58;40.85
30967;BME280;17649;51.836;8.330;2023-05-18T12:24:41;102081.31;;;28.62;35.70
30967;BME280;17649;51.836;8.330;2023-05-18T12:27:45;102078.84;;;29.80;32.94
30967;BME280;17649;51.836;8.330;2023-05-18T12:30:53;102074.06;;;30.44;32.73
30967;BME280;17649;51.836;8.330;2023-05-18T12:33:54;102069.06;;;30.64;31.47
30967;BME280;17649;51.836;8.330;2023-05-18T12:36:54;102061.22;;;31.29;30.94
30967;BME280;17649;51.836;8.330;2023-05-18T12:40:00;102058.75;;;32.00;28.13
30967;BME280;17649;51.836;8.330;2023-05-18T12:43:00;102049.13;;;32.55;28.36
30967;BME280;17649;51.836;8.330;2023-05-18T12:46:02;102048.53;;;33.63;29.91
30967;BME280;17649;51.836;8.330;2023-05-18T12:49:03;102056.00;;;30.69;30.92
30967;BME280;17649;51.836;8.330;2023-05-18T12:52:11;102062.19;;;28.50;33.72
30967;BME280;17649;51.836;8.330;2023-05-18T12:55:18;102064.00;;;26.99;36.05
30967;BME280;17649;51.836;8.330;2023-05-18T12:58:24;102059.16;;;28.70;35.45
30967;BME280;17649;51.836;8.330;2023-05-18T13:01:24;102044.97;;;31.01;31.22
30967;BME280;17649;51.836;8.330;2023-05-18T13:04:31;102048.00;;;32.99;31.24
30967;BME280;17649;51.836;8.330;2023-05-18T13:07:36;102037.84;;;32.31;29.42
30967;BME280;17649;51.836;8.330;2023-05-18T13:10:36;102035.28;;;33.55;28.05
30967;BME280;17649;51.836;8.330;2023-05-18T13:13:36;102029.34;;;32.56;30.53
30967;BME280;17649;51.836;8.330;2023-05-18T13:16:37;102025.66;;;32.57;28.04
30967;BME280;17649;51.836;8.330;2023-05-18T13:19:38;102026.88;;;32.82;28.84
30967;BME280;17649;51.836;8.330;2023-05-18T13:22:38;102021.19;;;31.93;29.08
30967;BME280;17649;51.836;8.330;2023-05-18T13:25:38;102021.78;;;31.89;30.67
30967;BME280;17649;51.836;8.330;2023-05-18T13:28:39;102014.09;;;33.19;29.02
30967;BME280;17649;51.836;8.330;2023-05-18T13:31:40;102021.56;;;31.33;29.63
30967;BME280;17649;51.836;8.330;2023-05-18T13:34:40;102020.25;;;31.43;28.80
30967;BME280;17649;51.836;8.330;2023-05-18T13:37:41;102011.69;;;32.61;28.11
30967;BME280;17649;51.836;8.330;2023-05-18T13:40:42;102010.47;;;33.40;27.08
30967;BME280;17649;51.836;8.330;2023-05-18T13:43:42;102006.91;;;32.08;27.44
30967;BME280;17649;51.836;8.330;2023-05-18T13:46:42;102005.34;;;32.41;28.04
30967;BME280;17649;51.836;8.330;2023-05-18T13:49:43;101997.78;;;33.88;25.56
30967;BME280;17649;51.836;8.330;2023-05-18T13:52:43;101993.44;;;34.27;26.64
30967;BME280;17649;51.836;8.330;2023-05-18T13:55:44;101984.38;;;34.15;25.52
30967;BME280;17649;51.836;8.330;2023-05-18T13:58:44;101977.56;;;34.38;26.70
30967;BME280;17649;51.836;8.330;2023-05-18T14:01:45;101976.75;;;35.47;25.86
30967;BME280;17649;51.836;8.330;2023-05-18T14:04:46;101973.03;;;36.05;24.90
30967;BME280;17649;51.836;8.330;2023-05-18T14:07:46;101973.97;;;36.79;24.22
30967;BME280;17649;51.836;8.330;2023-05-18T14:10:47;101960.19;;;37.47;23.41
30967;BME280;17649;51.836;8.330;2023-05-18T14:13:47;101962.63;;;35.59;24.89
30967;BME280;17649;51.836;8.330;2023-05-18T14:16:47;101963.72;;;35.06;25.19
30967;BME280;17649;51.836;8.330;2023-05-18T14:19:47;101968.84;;;34.30;25.24
30967;BME280;17649;51.836;8.330;2023-05-18T14:22:48;101953.47;;;34.77;23.75
30967;BME280;17649;51.836;8.330;2023-05-18T14:25:48;101945.31;;;34.19;24.48
30967;BME280;17649;51.836;8.330;2023-05-18T14:28:48;101945.00;;;34.66;24.47
30967;BME280;17649;51.836;8.330;2023-05-18T14:31:49;101949.00;;;34.57;25.41
30967;BME280;17649;51.836;8.330;2023-05-18T14:34:49;101939.81;;;35.61;25.53
30967;BME280;17649;51.836;8.330;2023-05-18T14:37:54;101944.81;;;35.19;24.77
30967;BME280;17649;51.836;8.330;2023-05-18T14:40:54;101944.47;;;36.47;22.63
30967;BME280;17649;51.836;8.330;2023-05-18T14:43:55;101947.88;;;35.93;24.29
30967;BME280;17649;51.836;8.330;2023-05-18T14:46:55;101950.78;;;35.91;25.05
30967;BME280;17649;51.836;8.330;2023-05-18T14:49:55;101942.94;;;36.88;23.66
30967;BME280;17649;51.836;8.330;2023-05-18T14:52:56;101947.50;;;36.69;24.57
30967;BME280;17649;51.836;8.330;2023-05-18T14:55:56;101940.94;;;37.13;23.57
30967;BME280;17649;51.836;8.330;2023-05-18T14:58:56;101939.75;;;35.68;22.38
30967;BME280;17649;51.836;8.330;2023-05-18T15:01:56;101938.31;;;36.58;24.43
30967;BME280;17649;51.836;8.330;2023-05-18T15:04:57;101934.97;;;37.11;24.36
30967;BME280;17649;51.836;8.330;2023-05-18T15:07:57;101943.19;;;36.50;23.81
30967;BME280;17649;51.836;8.330;2023-05-18T15:10:57;101929.81;;;36.18;25.91
30967;BME280;17649;51.836;8.330;2023-05-18T15:13:58;101932.84;;;36.83;23.49
30967;BME280;17649;51.836;8.330;2023-05-18T15:16:58;101932.16;;;37.36;23.30
30967;BME280;17649;51.836;8.330;2023-05-18T15:19:58;101934.69;;;37.31;22.10
30967;BME280;17649;51.836;8.330;2023-05-18T15:22:58;101932.97;;;36.70;23.32
30967;BME280;17649;51.836;8.330;2023-05-18T15:25:59;101930.31;;;37.72;23.05
30967;BME280;17649;51.836;8.330;2023-05-18T15:28:59;101921.78;;;38.33;21.18
30967;BME280;17649;51.836;8.330;2023-05-18T15:31:59;101922.34;;;36.57;22.74
30967;BME280;17649;51.836;8.330;2023-05-18T15:35:00;101916.44;;;35.23;23.87
30967;BME280;17649;51.836;8.330;2023-05-18T15:38:00;101925.31;;;35.31;23.90
30967;BME280;17649;51.836;8.330;2023-05-18T15:41:01;101924.44;;;33.68;25.25
30967;BME280;17649;51.836;8.330;2023-05-18T15:44:01;101928.34;;;34.31;26.06
30967;BME280;17649;51.836;8.330;2023-05-18T15:47:03;101918.66;;;34.24;23.81
30967;BME280;17649;51.836;8.330;2023-05-18T15:50:03;101916.84;;;35.27;24.43
30967;BME280;17649;51.836;8.330;2023-05-18T15:53:03;101921.34;;;34.30;24.24
30967;BME280;17649;51.836;8.330;2023-05-18T15:56:04;101905.50;;;35.18;24.77